This is the latest recevied weather packets stored in our database for station/object M0XDC-10. If no packets are shown the sender has not sent any weather packets the latest 1 day(s).
| Time | Temp. | Humidity | Pressure | Rain* | Wind** | Luminosity | Snow |
|---|---|---|---|---|---|---|---|
| 1778315406 | 25.56° C | 30% | 1019.3 hPa | - | - | - | - |
| 1778314506 | 24.44° C | 31% | 1019.3 hPa | - | - | - | - |
| 1778313606 | 24.44° C | 31% | 1019.3 hPa | - | - | - | - |
| 1778312706 | 24.44° C | 31% | 1019.3 hPa | - | - | - | - |
| 1778311841 | 24.44° C | 31% | 1019.3 hPa | - | - | - | - |
| 1778311805 | 24.44° C | 31% | 1019.3 hPa | - | - | - | - |
| 1778310905 | 25° C | 30% | 1019.2 hPa | - | - | - | - |
| 1778310005 | 25° C | 30% | 1019.1 hPa | - | - | - | - |
| 1778309104 | 25° C | 30% | 1019 hPa | - | - | - | - |
| 1778308236 | 25° C | 30% | 1019.2 hPa | - | - | - | - |
| 1778308204 | 25° C | 30% | 1019.2 hPa | - | - | - | - |
| 1778307364 | 25° C | 30% | 1019.2 hPa | - | - | - | - |
| 1778307303 | 25° C | 30% | 1019.2 hPa | - | - | - | - |
| 1778306438 | 24.44° C | 30% | 1019.1 hPa | - | - | - | - |
| 1778306402 | 24.44° C | 30% | 1019.1 hPa | - | - | - | - |
| 1778305533 | 25° C | 30% | 1019.1 hPa | - | - | - | - |
| 1778305502 | 25° C | 30% | 1019.1 hPa | - | - | - | - |
| 1778304609 | 29.44° C | 23% | 1018.9 hPa | - | - | - | - |
| 1778303740 | 23.89° C | 31% | 1019 hPa | - | - | - | - |
| 1778303709 | 23.89° C | 31% | 1019 hPa | - | - | - | - |
| 1778302809 | 23.89° C | 31% | 1019 hPa | - | - | - | - |
| 1778301908 | 23.89° C | 31% | 1019 hPa | - | - | - | - |
| 1778301041 | 23.89° C | 31% | 1019 hPa | - | - | - | - |
| 1778301008 | 23.89° C | 31% | 1019 hPa | - | - | - | - |
| 1778300107 | 23.89° C | 30% | 1018.9 hPa | - | - | - | - |
* Rain since midnight (hover to see other rain measurements)
** Current wind speed in m/s (hover to see current wind gust speed)